sensor_id;sensor_type;location;lat;lon;timestamp;pressure;altitude;pressure_sealevel;temperature;humidity
51417;BME280;50158;51.528;6.982;2022-10-16T00:00:20;67750;;;12.77;100
51417;BME280;50158;51.528;6.982;2022-10-16T00:01:21;67750;;;12.77;100
51417;BME280;50158;51.528;6.982;2022-10-16T00:02:20;67740;;;12.66;100
51417;BME280;50158;51.528;6.982;2022-10-16T00:03:20;67750;;;12.72;100
51417;BME280;50158;51.528;6.982;2022-10-16T00:04:20;67750;;;12.75;100
51417;BME280;50158;51.528;6.982;2022-10-16T00:05:20;67760;;;12.82;100
51417;BME280;50158;51.528;6.982;2022-10-16T00:06:20;67750;;;12.76;100
51417;BME280;50158;51.528;6.982;2022-10-16T00:07:20;67750;;;12.78;100
51417;BME280;50158;51.528;6.982;2022-10-16T00:08:20;67750;;;12.72;100
51417;BME280;50158;51.528;6.982;2022-10-16T00:09:20;67740;;;12.67;100
51417;BME280;50158;51.528;6.982;2022-10-16T00:10:20;67740;;;12.64;100
51417;BME280;50158;51.528;6.982;2022-10-16T00:11:21;67730;;;12.59;100
51417;BME280;50158;51.528;6.982;2022-10-16T00:12:20;67730;;;12.55;100
51417;BME280;50158;51.528;6.982;2022-10-16T00:13:20;67730;;;12.52;100
51417;BME280;50158;51.528;6.982;2022-10-16T00:14:20;67740;;;12.63;100
51417;BME280;50158;51.528;6.982;2022-10-16T00:15:20;67730;;;12.55;100
51417;BME280;50158;51.528;6.982;2022-10-16T00:16:20;67740;;;12.6;100
51417;BME280;50158;51.528;6.982;2022-10-16T00:17:20;67730;;;12.59;100
51417;BME280;50158;51.528;6.982;2022-10-16T00:18:20;67740;;;12.62;100
51417;BME280;50158;51.528;6.982;2022-10-16T00:19:20;67740;;;12.66;100
51417;BME280;50158;51.528;6.982;2022-10-16T00:20:20;67750;;;12.72;100
51417;BME280;50158;51.528;6.982;2022-10-16T00:21:21;67750;;;12.72;100
51417;BME280;50158;51.528;6.982;2022-10-16T00:22:20;67750;;;12.73;100
51417;BME280;50158;51.528;6.982;2022-10-16T00:23:20;67750;;;12.73;100
51417;BME280;50158;51.528;6.982;2022-10-16T00:24:20;67750;;;12.72;100
51417;BME280;50158;51.528;6.982;2022-10-16T00:25:20;67750;;;12.72;100
51417;BME280;50158;51.528;6.982;2022-10-16T00:26:20;67750;;;12.76;100
51417;BME280;50158;51.528;6.982;2022-10-16T00:27:20;67750;;;12.76;100
51417;BME280;50158;51.528;6.982;2022-10-16T00:28:20;67750;;;12.72;100
51417;BME280;50158;51.528;6.982;2022-10-16T00:29:20;67760;;;12.81;100
51417;BME280;50158;51.528;6.982;2022-10-16T00:30:20;67750;;;12.77;100
51417;BME280;50158;51.528;6.982;2022-10-16T00:31:20;67750;;;12.73;100
51417;BME280;50158;51.528;6.982;2022-10-16T00:32:20;67750;;;12.69;100
51417;BME280;50158;51.528;6.982;2022-10-16T00:33:20;67750;;;12.71;100
51417;BME280;50158;51.528;6.982;2022-10-16T00:34:20;67760;;;12.78;100
51417;BME280;50158;51.528;6.982;2022-10-16T00:35:20;67750;;;12.77;100
51417;BME280;50158;51.528;6.982;2022-10-16T00:36:21;67750;;;12.76;100
51417;BME280;50158;51.528;6.982;2022-10-16T00:37:20;67760;;;12.78;100
51417;BME280;50158;51.528;6.982;2022-10-16T00:38:19;67750;;;12.75;100
51417;BME280;50158;51.528;6.982;2022-10-16T00:39:20;67750;;;12.74;100
51417;BME280;50158;51.528;6.982;2022-10-16T00:40:20;67760;;;12.8;100
51417;BME280;50158;51.528;6.982;2022-10-16T00:41:21;67750;;;12.78;100
51417;BME280;50158;51.528;6.982;2022-10-16T00:42:20;67760;;;12.81;100
51417;BME280;50158;51.528;6.982;2022-10-16T00:43:37;67750;;;12.75;100
51417;BME280;50158;51.528;6.982;2022-10-16T00:44:52;67750;;;12.76;100
51417;BME280;50158;51.528;6.982;2022-10-16T00:45:20;67750;;;12.7;100
51417;BME280;50158;51.528;6.982;2022-10-16T00:46:21;67740;;;12.69;100
51417;BME280;50158;51.528;6.982;2022-10-16T00:47:23;67750;;;12.73;100
51417;BME280;50158;51.528;6.982;2022-10-16T00:48:20;67750;;;12.77;100
51417;BME280;50158;51.528;6.982;2022-10-16T00:49:20;67760;;;12.8;100
51417;BME280;50158;51.528;6.982;2022-10-16T00:50:28;67760;;;12.8;100
51417;BME280;50158;51.528;6.982;2022-10-16T00:51:22;67750;;;12.77;100
51417;BME280;50158;51.528;6.982;2022-10-16T00:52:43;67760;;;12.8;100
51417;BME280;50158;51.528;6.982;2022-10-16T00:54:22;67760;;;12.87;100
51417;BME280;50158;51.528;6.982;2022-10-16T00:55:20;67770;;;12.93;100
51417;BME280;50158;51.528;6.982;2022-10-16T00:56:20;67770;;;12.95;100
51417;BME280;50158;51.528;6.982;2022-10-16T00:57:20;67780;;;13;100
51417;BME280;50158;51.528;6.982;2022-10-16T00:58:20;67780;;;13.02;100
51417;BME280;50158;51.528;6.982;2022-10-16T00:59:22;67780;;;13.03;100
51417;BME280;50158;51.528;6.982;2022-10-16T01:01:20;67790;;;13.08;100
51417;BME280;50158;51.528;6.982;2022-10-16T01:02:20;67790;;;13.08;100
51417;BME280;50158;51.528;6.982;2022-10-16T01:03:24;67790;;;13.08;100
51417;BME280;50158;51.528;6.982;2022-10-16T01:04:20;67790;;;13.11;100
51417;BME280;50158;51.528;6.982;2022-10-16T01:05:21;67790;;;13.08;100
51417;BME280;50158;51.528;6.982;2022-10-16T01:07:23;67800;;;13.15;100
51417;BME280;50158;51.528;6.982;2022-10-16T01:07:27;67790;;;13.15;100
51417;BME280;50158;51.528;6.982;2022-10-16T01:08:22;67800;;;13.16;100
51417;BME280;50158;51.528;6.982;2022-10-16T01:09:22;67790;;;13.1;100
51417;BME280;50158;51.528;6.982;2022-10-16T01:10:54;67790;;;13.11;100
51417;BME280;50158;51.528;6.982;2022-10-16T01:11:22;67800;;;13.21;100
51417;BME280;50158;51.528;6.982;2022-10-16T01:12:22;67800;;;13.21;100
51417;BME280;50158;51.528;6.982;2022-10-16T01:13:21;67800;;;13.17;100
51417;BME280;50158;51.528;6.982;2022-10-16T01:14:31;67800;;;13.22;100
51417;BME280;50158;51.528;6.982;2022-10-16T01:15:29;67800;;;13.18;100
51417;BME280;50158;51.528;6.982;2022-10-16T01:16:23;67800;;;13.23;100
51417;BME280;50158;51.528;6.982;2022-10-16T01:17:22;67800;;;13.18;100
51417;BME280;50158;51.528;6.982;2022-10-16T01:18:22;67790;;;13.12;100
51417;BME280;50158;51.528;6.982;2022-10-16T01:19:26;67780;;;13.04;100
51417;BME280;50158;51.528;6.982;2022-10-16T01:20:36;67770;;;12.97;100
51417;BME280;50158;51.528;6.982;2022-10-16T01:21:22;67780;;;13.03;100
51417;BME280;50158;51.528;6.982;2022-10-16T01:22:20;67780;;;13.04;100
51417;BME280;50158;51.528;6.982;2022-10-16T01:23:23;67780;;;13.03;100
51417;BME280;50158;51.528;6.982;2022-10-16T01:24:31;67780;;;13;100
51417;BME280;50158;51.528;6.982;2022-10-16T01:25:25;67770;;;12.94;100
51417;BME280;50158;51.528;6.982;2022-10-16T01:27:22;67780;;;13;100
51417;BME280;50158;51.528;6.982;2022-10-16T01:28:21;67770;;;12.94;100
51417;BME280;50158;51.528;6.982;2022-10-16T01:29:23;67770;;;12.96;100
51417;BME280;50158;51.528;6.982;2022-10-16T01:30:22;67790;;;13.06;100
51417;BME280;50158;51.528;6.982;2022-10-16T01:31:21;67780;;;13.02;100
51417;BME280;50158;51.528;6.982;2022-10-16T01:32:53;67780;;;12.99;100
51417;BME280;50158;51.528;6.982;2022-10-16T01:33:20;67770;;;12.97;100
51417;BME280;50158;51.528;6.982;2022-10-16T01:34:22;67770;;;12.93;100
51417;BME280;50158;51.528;6.982;2022-10-16T01:35:22;67770;;;12.88;100
51417;BME280;50158;51.528;6.982;2022-10-16T01:36:21;67760;;;12.85;100
51417;BME280;50158;51.528;6.982;2022-10-16T01:37:24;67760;;;12.86;100
51417;BME280;50158;51.528;6.982;2022-10-16T01:38:22;67760;;;12.83;100
51417;BME280;50158;51.528;6.982;2022-10-16T01:39:20;67750;;;12.75;100
51417;BME280;50158;51.528;6.982;2022-10-16T01:40:20;67740;;;12.67;100
51417;BME280;50158;51.528;6.982;2022-10-16T01:41:24;67750;;;12.74;100
51417;BME280;50158;51.528;6.982;2022-10-16T01:42:21;67740;;;12.68;100
51417;BME280;50158;51.528;6.982;2022-10-16T01:43:21;67740;;;12.67;100
51417;BME280;50158;51.528;6.982;2022-10-16T01:44:21;67740;;;12.66;100
51417;BME280;50158;51.528;6.982;2022-10-16T01:45:20;67740;;;12.67;100
51417;BME280;50158;51.528;6.982;2022-10-16T01:46:20;67740;;;12.64;100
51417;BME280;50158;51.528;6.982;2022-10-16T01:47:21;67740;;;12.64;100
51417;BME280;50158;51.528;6.982;2022-10-16T01:48:20;67740;;;12.67;100
51417;BME280;50158;51.528;6.982;2022-10-16T01:49:20;67740;;;12.66;100
51417;BME280;50158;51.528;6.982;2022-10-16T01:50:20;67740;;;12.62;100
51417;BME280;50158;51.528;6.982;2022-10-16T01:51:20;67730;;;12.58;100
51417;BME280;50158;51.528;6.982;2022-10-16T01:52:14;67730;;;12.56;100
51417;BME280;50158;51.528;6.982;2022-10-16T01:53:20;67730;;;12.59;100
51417;BME280;50158;51.528;6.982;2022-10-16T01:54:20;67740;;;12.67;100
51417;BME280;50158;51.528;6.982;2022-10-16T01:55:22;67740;;;12.65;100
51417;BME280;50158;51.528;6.982;2022-10-16T01:56:20;67750;;;12.74;100
51417;BME280;50158;51.528;6.982;2022-10-16T01:57:20;67750;;;12.75;100
51417;BME280;50158;51.528;6.982;2022-10-16T01:58:20;67750;;;12.73;100
51417;BME280;50158;51.528;6.982;2022-10-16T01:59:20;67740;;;12.68;100
51417;BME280;50158;51.528;6.982;2022-10-16T02:00:20;67740;;;12.68;100
51417;BME280;50158;51.528;6.982;2022-10-16T02:01:20;67750;;;12.7;100
51417;BME280;50158;51.528;6.982;2022-10-16T02:02:30;67750;;;12.71;100
51417;BME280;50158;51.528;6.982;2022-10-16T02:03:23;67740;;;12.67;100
51417;BME280;50158;51.528;6.982;2022-10-16T02:04:28;67740;;;12.67;100
51417;BME280;50158;51.528;6.982;2022-10-16T02:05:21;67750;;;12.77;100
51417;BME280;50158;51.528;6.982;2022-10-16T02:06:20;67750;;;12.72;100
51417;BME280;50158;51.528;6.982;2022-10-16T02:07:20;67740;;;12.68;100
51417;BME280;50158;51.528;6.982;2022-10-16T02:08:20;67740;;;12.66;100
51417;BME280;50158;51.528;6.982;2022-10-16T02:09:20;67750;;;12.72;100
51417;BME280;50158;51.528;6.982;2022-10-16T02:10:20;67750;;;12.73;100
51417;BME280;50158;51.528;6.982;2022-10-16T02:11:20;67740;;;12.69;100
51417;BME280;50158;51.528;6.982;2022-10-16T02:12:28;67740;;;12.66;100
51417;BME280;50158;51.528;6.982;2022-10-16T02:13:22;67740;;;12.66;100
51417;BME280;50158;51.528;6.982;2022-10-16T02:14:20;67740;;;12.6;100
51417;BME280;50158;51.528;6.982;2022-10-16T02:15:20;67750;;;12.71;100
51417;BME280;50158;51.528;6.982;2022-10-16T02:17:20;67760;;;12.79;100
51417;BME280;50158;51.528;6.982;2022-10-16T02:18:20;67750;;;12.79;100
51417;BME280;50158;51.528;6.982;2022-10-16T02:19:20;67760;;;12.85;100
51417;BME280;50158;51.528;6.982;2022-10-16T02:20:20;67770;;;12.97;100
51417;BME280;50158;51.528;6.982;2022-10-16T02:21:25;67770;;;12.91;100
51417;BME280;50158;51.528;6.982;2022-10-16T02:22:22;67770;;;12.94;100
51417;BME280;50158;51.528;6.982;2022-10-16T02:23:23;67770;;;12.89;100
51417;BME280;50158;51.528;6.982;2022-10-16T02:24:29;67770;;;12.92;100
51417;BME280;50158;51.528;6.982;2022-10-16T02:25:36;67770;;;12.92;100
51417;BME280;50158;51.528;6.982;2022-10-16T02:26:23;67770;;;12.88;100
51417;BME280;50158;51.528;6.982;2022-10-16T02:28:22;67780;;;12.99;100
51417;BME280;50158;51.528;6.982;2022-10-16T02:28:24;67780;;;13.01;100
51417;BME280;50158;51.528;6.982;2022-10-16T02:29:22;67780;;;12.98;100
51417;BME280;50158;51.528;6.982;2022-10-16T02:30:22;67780;;;13;100
51417;BME280;50158;51.528;6.982;2022-10-16T02:31:22;67780;;;13;100
51417;BME280;50158;51.528;6.982;2022-10-16T02:32:21;67780;;;13.01;100
51417;BME280;50158;51.528;6.982;2022-10-16T02:33:20;67770;;;12.95;100
51417;BME280;50158;51.528;6.982;2022-10-16T02:34:20;67780;;;12.99;100
51417;BME280;50158;51.528;6.982;2022-10-16T02:35:20;67780;;;12.97;100
51417;BME280;50158;51.528;6.982;2022-10-16T02:36:20;67770;;;12.95;100
51417;BME280;50158;51.528;6.982;2022-10-16T02:37:20;67770;;;12.94;100
51417;BME280;50158;51.528;6.982;2022-10-16T02:38:20;67770;;;12.97;100
51417;BME280;50158;51.528;6.982;2022-10-16T02:39:20;67770;;;12.92;100
51417;BME280;50158;51.528;6.982;2022-10-16T02:40:20;67770;;;12.89;100
51417;BME280;50158;51.528;6.982;2022-10-16T02:41:20;67770;;;12.94;100
51417;BME280;50158;51.528;6.982;2022-10-16T02:42:20;67760;;;12.87;100
51417;BME280;50158;51.528;6.982;2022-10-16T02:43:20;67760;;;12.86;100
51417;BME280;50158;51.528;6.982;2022-10-16T02:44:20;67760;;;12.86;100
51417;BME280;50158;51.528;6.982;2022-10-16T02:45:20;67760;;;12.8;100
51417;BME280;50158;51.528;6.982;2022-10-16T02:46:20;67760;;;12.79;100
51417;BME280;50158;51.528;6.982;2022-10-16T02:47:20;67760;;;12.78;100
51417;BME280;50158;51.528;6.982;2022-10-16T02:48:20;67750;;;12.78;100
51417;BME280;50158;51.528;6.982;2022-10-16T02:49:20;67750;;;12.72;100
51417;BME280;50158;51.528;6.982;2022-10-16T02:50:20;67750;;;12.77;100
51417;BME280;50158;51.528;6.982;2022-10-16T02:51:20;67740;;;12.68;100
51417;BME280;50158;51.528;6.982;2022-10-16T02:52:20;67740;;;12.67;100
51417;BME280;50158;51.528;6.982;2022-10-16T02:53:20;67750;;;12.72;100
51417;BME280;50158;51.528;6.982;2022-10-16T02:54:20;67740;;;12.68;100
51417;BME280;50158;51.528;6.982;2022-10-16T02:55:20;67750;;;12.72;100
51417;BME280;50158;51.528;6.982;2022-10-16T02:56:20;67740;;;12.68;100
51417;BME280;50158;51.528;6.982;2022-10-16T02:57:20;67740;;;12.68;100
51417;BME280;50158;51.528;6.982;2022-10-16T02:58:20;67760;;;12.81;100
51417;BME280;50158;51.528;6.982;2022-10-16T02:59:20;67750;;;12.79;100
51417;BME280;50158;51.528;6.982;2022-10-16T03:00:20;67760;;;12.8;100
51417;BME280;50158;51.528;6.982;2022-10-16T03:01:20;67760;;;12.85;100
51417;BME280;50158;51.528;6.982;2022-10-16T03:02:20;67770;;;12.91;100
51417;BME280;50158;51.528;6.982;2022-10-16T03:03:20;67770;;;12.87;100
51417;BME280;50158;51.528;6.982;2022-10-16T03:04:20;67770;;;12.9;100
51417;BME280;50158;51.528;6.982;2022-10-16T03:05:20;67780;;;12.97;100
51417;BME280;50158;51.528;6.982;2022-10-16T03:06:20;67780;;;13;100
51417;BME280;50158;51.528;6.982;2022-10-16T03:07:20;67780;;;13;100
51417;BME280;50158;51.528;6.982;2022-10-16T03:08:20;67790;;;13.08;100
51417;BME280;50158;51.528;6.982;2022-10-16T03:09:20;67790;;;13.06;100
51417;BME280;50158;51.528;6.982;2022-10-16T03:10:20;67790;;;13.06;100
51417;BME280;50158;51.528;6.982;2022-10-16T03:11:20;67790;;;13.11;100
51417;BME280;50158;51.528;6.982;2022-10-16T03:12:20;67790;;;13.13;100
51417;BME280;50158;51.528;6.982;2022-10-16T03:13:20;67800;;;13.18;100
51417;BME280;50158;51.528;6.982;2022-10-16T03:14:20;67800;;;13.18;100
51417;BME280;50158;51.528;6.982;2022-10-16T03:15:20;67800;;;13.25;100
51417;BME280;50158;51.528;6.982;2022-10-16T03:16:20;67800;;;13.24;100
51417;BME280;50158;51.528;6.982;2022-10-16T03:17:20;67820;;;13.34;100
51417;BME280;50158;51.528;6.982;2022-10-16T03:18:20;67820;;;13.35;100
51417;BME280;50158;51.528;6.982;2022-10-16T03:19:20;67820;;;13.36;100
51417;BME280;50158;51.528;6.982;2022-10-16T03:20:20;67820;;;13.36;100
51417;BME280;50158;51.528;6.982;2022-10-16T03:21:20;67820;;;13.38;100
51417;BME280;50158;51.528;6.982;2022-10-16T03:22:20;67820;;;13.42;100
51417;BME280;50158;51.528;6.982;2022-10-16T03:23:20;67830;;;13.47;100
51417;BME280;50158;51.528;6.982;2022-10-16T03:24:20;67830;;;13.51;100
51417;BME280;50158;51.528;6.982;2022-10-16T03:25:20;67830;;;13.49;100
51417;BME280;50158;51.528;6.982;2022-10-16T03:26:20;67840;;;13.54;100
51417;BME280;50158;51.528;6.982;2022-10-16T03:27:20;67840;;;13.58;100
51417;BME280;50158;51.528;6.982;2022-10-16T03:28:20;67840;;;13.59;100
51417;BME280;50158;51.528;6.982;2022-10-16T03:29:20;67840;;;13.56;100
51417;BME280;50158;51.528;6.982;2022-10-16T03:30:20;67830;;;13.47;100
51417;BME280;50158;51.528;6.982;2022-10-16T03:31:20;67830;;;13.53;100
51417;BME280;50158;51.528;6.982;2022-10-16T03:32:20;67830;;;13.43;100
51417;BME280;50158;51.528;6.982;2022-10-16T03:33:20;67820;;;13.42;100
51417;BME280;50158;51.528;6.982;2022-10-16T03:34:20;67820;;;13.37;100
51417;BME280;50158;51.528;6.982;2022-10-16T03:35:20;67830;;;13.43;100
51417;BME280;50158;51.528;6.982;2022-10-16T03:36:20;67820;;;13.41;100
51417;BME280;50158;51.528;6.982;2022-10-16T03:37:20;67820;;;13.42;100
51417;BME280;50158;51.528;6.982;2022-10-16T03:38:20;67820;;;13.44;100
51417;BME280;50158;51.528;6.982;2022-10-16T03:39:20;67820;;;13.42;100
51417;BME280;50158;51.528;6.982;2022-10-16T03:40:20;67820;;;13.42;100
51417;BME280;50158;51.528;6.982;2022-10-16T03:41:20;67820;;;13.39;100
51417;BME280;50158;51.528;6.982;2022-10-16T03:42:20;67810;;;13.34;100
51417;BME280;50158;51.528;6.982;2022-10-16T03:43:20;67810;;;13.34;100
51417;BME280;50158;51.528;6.982;2022-10-16T03:45:20;67810;;;13.33;100
51417;BME280;50158;51.528;6.982;2022-10-16T03:46:20;67810;;;13.33;100
51417;BME280;50158;51.528;6.982;2022-10-16T03:47:20;67820;;;13.37;100
51417;BME280;50158;51.528;6.982;2022-10-16T03:48:20;67820;;;13.35;100
51417;BME280;50158;51.528;6.982;2022-10-16T03:49:20;67820;;;13.34;100
51417;BME280;50158;51.528;6.982;2022-10-16T03:50:20;67810;;;13.33;100
51417;BME280;50158;51.528;6.982;2022-10-16T03:51:20;67800;;;13.24;100
51417;BME280;50158;51.528;6.982;2022-10-16T03:52:20;67800;;;13.24;100
51417;BME280;50158;51.528;6.982;2022-10-16T03:53:20;67800;;;13.2;100
51417;BME280;50158;51.528;6.982;2022-10-16T03:54:20;67810;;;13.29;100
51417;BME280;50158;51.528;6.982;2022-10-16T03:55:20;67810;;;13.26;100
51417;BME280;50158;51.528;6.982;2022-10-16T03:56:20;67800;;;13.22;100
51417;BME280;50158;51.528;6.982;2022-10-16T03:57:20;67800;;;13.18;100
51417;BME280;50158;51.528;6.982;2022-10-16T03:58:20;67790;;;13.13;100
51417;BME280;50158;51.528;6.982;2022-10-16T03:59:20;67790;;;13.14;100
51417;BME280;50158;51.528;6.982;2022-10-16T04:00:20;67800;;;13.21;100
51417;BME280;50158;51.528;6.982;2022-10-16T04:01:20;67790;;;13.15;100
51417;BME280;50158;51.528;6.982;2022-10-16T04:02:20;67790;;;13.07;100
51417;BME280;50158;51.528;6.982;2022-10-16T04:03:20;67780;;;13.03;100
51417;BME280;50158;51.528;6.982;2022-10-16T04:04:20;67790;;;13.05;100
51417;BME280;50158;51.528;6.982;2022-10-16T04:05:20;67790;;;13.12;100
51417;BME280;50158;51.528;6.982;2022-10-16T04:06:20;67790;;;13.08;100
51417;BME280;50158;51.528;6.982;2022-10-16T04:07:20;67790;;;13.12;100
51417;BME280;50158;51.528;6.982;2022-10-16T04:08:20;67790;;;13.13;100
51417;BME280;50158;51.528;6.982;2022-10-16T04:09:20;67790;;;13.14;100
51417;BME280;50158;51.528;6.982;2022-10-16T04:10:20;67800;;;13.2;100
51417;BME280;50158;51.528;6.982;2022-10-16T04:11:20;67800;;;13.23;100
51417;BME280;50158;51.528;6.982;2022-10-16T04:12:20;67800;;;13.19;100
51417;BME280;50158;51.528;6.982;2022-10-16T04:13:30;67800;;;13.23;100
51417;BME280;50158;51.528;6.982;2022-10-16T04:14:20;67800;;;13.16;100
51417;BME280;50158;51.528;6.982;2022-10-16T04:15:20;67800;;;13.15;100
51417;BME280;50158;51.528;6.982;2022-10-16T04:16:20;67810;;;13.26;100
51417;BME280;50158;51.528;6.982;2022-10-16T04:17:20;67800;;;13.25;100
51417;BME280;50158;51.528;6.982;2022-10-16T04:18:20;67800;;;13.24;100
51417;BME280;50158;51.528;6.982;2022-10-16T04:19:20;67810;;;13.26;100
51417;BME280;50158;51.528;6.982;2022-10-16T04:20:20;67810;;;13.25;100
51417;BME280;50158;51.528;6.982;2022-10-16T04:21:20;67800;;;13.18;100
51417;BME280;50158;51.528;6.982;2022-10-16T04:22:20;67800;;;13.23;100
51417;BME280;50158;51.528;6.982;2022-10-16T04:23:20;67800;;;13.16;100
51417;BME280;50158;51.528;6.982;2022-10-16T04:24:20;67790;;;13.08;100
51417;BME280;50158;51.528;6.982;2022-10-16T04:25:20;67790;;;13.09;100
51417;BME280;50158;51.528;6.982;2022-10-16T04:26:20;67800;;;13.16;100
51417;BME280;50158;51.528;6.982;2022-10-16T04:27:20;67800;;;13.21;100
51417;BME280;50158;51.528;6.982;2022-10-16T04:28:20;67800;;;13.2;100
51417;BME280;50158;51.528;6.982;2022-10-16T04:29:20;67800;;;13.23;100
51417;BME280;50158;51.528;6.982;2022-10-16T04:30:20;67790;;;13.13;100
51417;BME280;50158;51.528;6.982;2022-10-16T04:31:20;67790;;;13.12;100
51417;BME280;50158;51.528;6.982;2022-10-16T04:32:20;67800;;;13.16;100
51417;BME280;50158;51.528;6.982;2022-10-16T04:33:20;67790;;;13.13;100
51417;BME280;50158;51.528;6.982;2022-10-16T04:34:20;67790;;;13.15;100
51417;BME280;50158;51.528;6.982;2022-10-16T04:35:20;67800;;;13.16;100
51417;BME280;50158;51.528;6.982;2022-10-16T04:36:20;67790;;;13.12;100
51417;BME280;50158;51.528;6.982;2022-10-16T04:37:23;67780;;;13.06;100
51417;BME280;50158;51.528;6.982;2022-10-16T04:38:20;67780;;;13.06;100
51417;BME280;50158;51.528;6.982;2022-10-16T04:39:20;67790;;;13.11;100
51417;BME280;50158;51.528;6.982;2022-10-16T04:41:20;67780;;;13.02;100
51417;BME280;50158;51.528;6.982;2022-10-16T04:42:20;67770;;;12.92;100
51417;BME280;50158;51.528;6.982;2022-10-16T04:43:20;67770;;;12.9;100
51417;BME280;50158;51.528;6.982;2022-10-16T04:44:20;67780;;;12.97;100
51417;BME280;50158;51.528;6.982;2022-10-16T04:45:20;67770;;;12.92;100
51417;BME280;50158;51.528;6.982;2022-10-16T04:46:20;67770;;;12.9;100
51417;BME280;50158;51.528;6.982;2022-10-16T04:47:20;67760;;;12.87;100
51417;BME280;50158;51.528;6.982;2022-10-16T04:48:20;67770;;;12.96;100
51417;BME280;50158;51.528;6.982;2022-10-16T04:49:20;67770;;;12.92;100
51417;BME280;50158;51.528;6.982;2022-10-16T04:50:20;67770;;;12.91;100
51417;BME280;50158;51.528;6.982;2022-10-16T04:51:20;67770;;;12.93;100
51417;BME280;50158;51.528;6.982;2022-10-16T04:52:20;67770;;;12.93;100
51417;BME280;50158;51.528;6.982;2022-10-16T04:53:20;67770;;;12.95;100
51417;BME280;50158;51.528;6.982;2022-10-16T04:54:20;67780;;;12.96;100
51417;BME280;50158;51.528;6.982;2022-10-16T04:55:20;67770;;;12.93;100
51417;BME280;50158;51.528;6.982;2022-10-16T04:56:20;67770;;;12.91;100
51417;BME280;50158;51.528;6.982;2022-10-16T04:57:20;67770;;;12.93;100
51417;BME280;50158;51.528;6.982;2022-10-16T04:58:20;67770;;;12.92;100
51417;BME280;50158;51.528;6.982;2022-10-16T04:59:20;67770;;;12.96;100
51417;BME280;50158;51.528;6.982;2022-10-16T05:00:20;67770;;;12.91;100
51417;BME280;50158;51.528;6.982;2022-10-16T05:01:20;67770;;;12.93;100
51417;BME280;50158;51.528;6.982;2022-10-16T05:02:20;67780;;;13;100
51417;BME280;50158;51.528;6.982;2022-10-16T05:03:20;67780;;;12.99;100
51417;BME280;50158;51.528;6.982;2022-10-16T05:04:20;67770;;;12.9;100
51417;BME280;50158;51.528;6.982;2022-10-16T05:05:20;67780;;;12.97;100
51417;BME280;50158;51.528;6.982;2022-10-16T05:06:20;67770;;;12.93;100
51417;BME280;50158;51.528;6.982;2022-10-16T05:07:20;67770;;;12.94;100
51417;BME280;50158;51.528;6.982;2022-10-16T05:08:20;67770;;;12.96;100
51417;BME280;50158;51.528;6.982;2022-10-16T05:09:20;67770;;;12.97;100
51417;BME280;50158;51.528;6.982;2022-10-16T05:10:20;67780;;;12.97;100
51417;BME280;50158;51.528;6.982;2022-10-16T05:11:20;67780;;;13.01;100
51417;BME280;50158;51.528;6.982;2022-10-16T05:12:20;67780;;;13.03;100
51417;BME280;50158;51.528;6.982;2022-10-16T05:13:35;67780;;;13.02;100
51417;BME280;50158;51.528;6.982;2022-10-16T05:14:29;67780;;;13.04;100
51417;BME280;50158;51.528;6.982;2022-10-16T05:15:20;67780;;;13.05;100
51417;BME280;50158;51.528;6.982;2022-10-16T05:16:20;67780;;;12.98;100
51417;BME280;50158;51.528;6.982;2022-10-16T05:17:20;67780;;;13.03;100
51417;BME280;50158;51.528;6.982;2022-10-16T05:18:20;67780;;;12.99;100
51417;BME280;50158;51.528;6.982;2022-10-16T05:19:20;67780;;;12.99;100
51417;BME280;50158;51.528;6.982;2022-10-16T05:20:20;67770;;;12.95;100
51417;BME280;50158;51.528;6.982;2022-10-16T05:21:20;67770;;;12.94;100
51417;BME280;50158;51.528;6.982;2022-10-16T05:22:20;67790;;;13.07;100
51417;BME280;50158;51.528;6.982;2022-10-16T05:23:20;67790;;;13.1;100
51417;BME280;50158;51.528;6.982;2022-10-16T05:24:20;67790;;;13.08;100
51417;BME280;50158;51.528;6.982;2022-10-16T05:25:20;67780;;;13.02;100
51417;BME280;50158;51.528;6.982;2022-10-16T05:27:20;67780;;;13.03;100
51417;BME280;50158;51.528;6.982;2022-10-16T05:29:20;67780;;;13.07;100
51417;BME280;50158;51.528;6.982;2022-10-16T05:30:20;67790;;;13.09;100
51417;BME280;50158;51.528;6.982;2022-10-16T05:31:20;67780;;;13.04;100
51417;BME280;50158;51.528;6.982;2022-10-16T05:32:20;67790;;;13.07;100
51417;BME280;50158;51.528;6.982;2022-10-16T05:33:20;67780;;;12.98;100
51417;BME280;50158;51.528;6.982;2022-10-16T05:35:20;67790;;;13.09;100
51417;BME280;50158;51.528;6.982;2022-10-16T05:36:20;67790;;;13.11;100
51417;BME280;50158;51.528;6.982;2022-10-16T05:37:20;67790;;;13.15;100
51417;BME280;50158;51.528;6.982;2022-10-16T05:38:20;67800;;;13.15;100
51417;BME280;50158;51.528;6.982;2022-10-16T05:39:20;67790;;;13.1;100
51417;BME280;50158;51.528;6.982;2022-10-16T05:40:20;67800;;;13.16;100
51417;BME280;50158;51.528;6.982;2022-10-16T05:41:20;67790;;;13.14;100
51417;BME280;50158;51.528;6.982;2022-10-16T05:42:20;67790;;;13.15;100
51417;BME280;50158;51.528;6.982;2022-10-16T05:43:20;67800;;;13.19;100
51417;BME280;50158;51.528;6.982;2022-10-16T05:44:20;67790;;;13.11;100
51417;BME280;50158;51.528;6.982;2022-10-16T05:45:20;67790;;;13.1;100
51417;BME280;50158;51.528;6.982;2022-10-16T05:46:20;67800;;;13.19;100
51417;BME280;50158;51.528;6.982;2022-10-16T05:47:20;67800;;;13.16;100
51417;BME280;50158;51.528;6.982;2022-10-16T05:48:20;67800;;;13.21;100
51417;BME280;50158;51.528;6.982;2022-10-16T05:49:20;67800;;;13.18;100